sensor_id;sensor_type;location;lat;lon;timestamp;P1;durP1;ratioP1;P2;durP2;ratioP2
44706;SDS011;30433;45.596;8.408;2023-06-01T00:05:10;6.00;;;4.70;;
44706;SDS011;30433;45.596;8.408;2023-06-01T00:11:14;6.87;;;3.87;;
44706;SDS011;30433;45.596;8.408;2023-06-01T00:17:16;6.20;;;4.13;;
44706;SDS011;30433;45.596;8.408;2023-06-01T00:23:19;7.32;;;4.18;;
44706;SDS011;30433;45.596;8.408;2023-06-01T00:29:23;5.63;;;3.70;;
44706;SDS011;30433;45.596;8.408;2023-06-01T00:35:25;9.40;;;4.53;;
44706;SDS011;30433;45.596;8.408;2023-06-01T00:41:27;7.70;;;4.70;;
44706;SDS011;30433;45.596;8.408;2023-06-01T00:47:31;7.70;;;4.10;;
44706;SDS011;30433;45.596;8.408;2023-06-01T00:53:40;10.02;;;4.07;;
44706;SDS011;30433;45.596;8.408;2023-06-01T01:05:46;7.32;;;4.53;;
44706;SDS011;30433;45.596;8.408;2023-06-01T01:11:52;8.93;;;4.75;;
44706;SDS011;30433;45.596;8.408;2023-06-01T01:18:02;7.32;;;4.55;;
44706;SDS011;30433;45.596;8.408;2023-06-01T01:24:23;5.25;;;3.88;;
44706;SDS011;30433;45.596;8.408;2023-06-01T01:30:35;6.47;;;4.72;;
44706;SDS011;30433;45.596;8.408;2023-06-01T01:36:41;9.52;;;4.93;;
44706;SDS011;30433;45.596;8.408;2023-06-01T01:42:43;8.52;;;4.38;;
44706;SDS011;30433;45.596;8.408;2023-06-01T01:48:50;7.40;;;4.57;;
44706;SDS011;30433;45.596;8.408;2023-06-01T01:55:03;8.35;;;4.30;;
44706;SDS011;30433;45.596;8.408;2023-06-01T02:01:08;7.05;;;4.00;;
44706;SDS011;30433;45.596;8.408;2023-06-01T02:07:13;7.03;;;4.95;;
44706;SDS011;30433;45.596;8.408;2023-06-01T02:13:16;6.90;;;4.55;;
44706;SDS011;30433;45.596;8.408;2023-06-01T02:19:18;7.13;;;4.57;;
44706;SDS011;30433;45.596;8.408;2023-06-01T02:25:22;9.88;;;4.75;;
44706;SDS011;30433;45.596;8.408;2023-06-01T02:31:24;7.07;;;4.60;;
44706;SDS011;30433;45.596;8.408;2023-06-01T02:37:26;6.72;;;4.53;;
44706;SDS011;30433;45.596;8.408;2023-06-01T02:43:29;7.57;;;4.67;;
44706;SDS011;30433;45.596;8.408;2023-06-01T02:49:34;6.20;;;4.35;;
44706;SDS011;30433;45.596;8.408;2023-06-01T02:55:36;6.03;;;4.20;;
44706;SDS011;30433;45.596;8.408;2023-06-01T03:01:40;7.23;;;4.57;;
44706;SDS011;30433;45.596;8.408;2023-06-01T03:07:42;8.00;;;4.25;;
44706;SDS011;30433;45.596;8.408;2023-06-01T03:13:45;7.35;;;4.53;;
44706;SDS011;30433;45.596;8.408;2023-06-01T03:19:49;5.57;;;3.87;;
44706;SDS011;30433;45.596;8.408;2023-06-01T03:25:51;5.93;;;4.30;;
44706;SDS011;30433;45.596;8.408;2023-06-01T03:31:53;6.82;;;4.18;;
44706;SDS011;30433;45.596;8.408;2023-06-01T03:37:57;11.23;;;4.60;;
44706;SDS011;30433;45.596;8.408;2023-06-01T03:43:59;7.60;;;4.75;;
44706;SDS011;30433;45.596;8.408;2023-06-01T03:50:01;5.77;;;4.00;;
44706;SDS011;30433;45.596;8.408;2023-06-01T03:56:07;8.98;;;4.68;;
44706;SDS011;30433;45.596;8.408;2023-06-01T04:02:09;6.20;;;4.30;;
44706;SDS011;30433;45.596;8.408;2023-06-01T04:08:12;8.43;;;4.40;;
44706;SDS011;30433;45.596;8.408;2023-06-01T04:14:15;5.60;;;4.23;;
44706;SDS011;30433;45.596;8.408;2023-06-01T04:20:17;7.85;;;4.03;;
44706;SDS011;30433;45.596;8.408;2023-06-01T04:32:23;5.85;;;4.15;;
44706;SDS011;30433;45.596;8.408;2023-06-01T04:38:27;11.38;;;4.63;;
44706;SDS011;30433;45.596;8.408;2023-06-01T04:44:30;5.88;;;4.13;;
44706;SDS011;30433;45.596;8.408;2023-06-01T04:50:34;20.23;;;6.00;;
44706;SDS011;30433;45.596;8.408;2023-06-01T04:56:37;5.05;;;4.10;;
44706;SDS011;30433;45.596;8.408;2023-06-01T05:02:39;6.93;;;4.20;;
44706;SDS011;30433;45.596;8.408;2023-06-01T05:08:46;7.40;;;4.13;;
44706;SDS011;30433;45.596;8.408;2023-06-01T05:14:49;8.38;;;4.35;;
44706;SDS011;30433;45.596;8.408;2023-06-01T05:20:51;8.37;;;4.97;;
44706;SDS011;30433;45.596;8.408;2023-06-01T05:26:54;8.60;;;4.60;;
44706;SDS011;30433;45.596;8.408;2023-06-01T05:32:58;6.03;;;4.93;;
44706;SDS011;30433;45.596;8.408;2023-06-01T05:39:00;5.87;;;4.73;;
44706;SDS011;30433;45.596;8.408;2023-06-01T05:45:04;13.13;;;5.10;;
44706;SDS011;30433;45.596;8.408;2023-06-01T05:51:07;9.05;;;4.70;;
44706;SDS011;30433;45.596;8.408;2023-06-01T05:57:11;7.65;;;4.75;;
44706;SDS011;30433;45.596;8.408;2023-06-01T06:03:14;6.82;;;4.70;;
44706;SDS011;30433;45.596;8.408;2023-06-01T06:09:17;8.10;;;4.35;;
44706;SDS011;30433;45.596;8.408;2023-06-01T06:15:19;10.18;;;4.93;;
44706;SDS011;30433;45.596;8.408;2023-06-01T06:21:22;6.33;;;4.40;;
44706;SDS011;30433;45.596;8.408;2023-06-01T06:27:24;6.47;;;4.20;;
44706;SDS011;30433;45.596;8.408;2023-06-01T06:33:27;6.03;;;4.00;;
44706;SDS011;30433;45.596;8.408;2023-06-01T06:39:30;6.18;;;4.15;;
44706;SDS011;30433;45.596;8.408;2023-06-01T06:45:33;6.00;;;4.30;;
44706;SDS011;30433;45.596;8.408;2023-06-01T06:51:35;8.98;;;4.20;;
44706;SDS011;30433;45.596;8.408;2023-06-01T06:57:40;9.27;;;4.55;;
44706;SDS011;30433;45.596;8.408;2023-06-01T07:03:42;9.98;;;4.53;;
44706;SDS011;30433;45.596;8.408;2023-06-01T07:09:44;6.25;;;4.13;;
44706;SDS011;30433;45.596;8.408;2023-06-01T07:15:48;10.55;;;4.15;;
44706;SDS011;30433;45.596;8.408;2023-06-01T07:21:50;8.07;;;4.60;;
44706;SDS011;30433;45.596;8.408;2023-06-01T07:27:52;5.53;;;4.07;;
44706;SDS011;30433;45.596;8.408;2023-06-01T07:33:57;5.95;;;4.65;;
44706;SDS011;30433;45.596;8.408;2023-06-01T07:40:00;6.20;;;4.30;;
44706;SDS011;30433;45.596;8.408;2023-06-01T07:46:03;8.75;;;5.07;;
44706;SDS011;30433;45.596;8.408;2023-06-01T07:52:06;7.07;;;5.25;;
44706;SDS011;30433;45.596;8.408;2023-06-01T07:58:09;7.18;;;5.10;;
44706;SDS011;30433;45.596;8.408;2023-06-01T08:04:11;7.20;;;5.32;;
44706;SDS011;30433;45.596;8.408;2023-06-01T08:10:18;9.40;;;5.40;;
44706;SDS011;30433;45.596;8.408;2023-06-01T08:16:23;6.90;;;5.70;;
44706;SDS011;30433;45.596;8.408;2023-06-01T08:22:26;8.52;;;5.40;;
44706;SDS011;30433;45.596;8.408;2023-06-01T08:34:33;6.90;;;5.70;;
44706;SDS011;30433;45.596;8.408;2023-06-01T08:40:35;7.25;;;5.05;;
44706;SDS011;30433;45.596;8.408;2023-06-01T08:46:40;8.63;;;5.22;;
44706;SDS011;30433;45.596;8.408;2023-06-01T08:52:43;9.45;;;5.15;;
44706;SDS011;30433;45.596;8.408;2023-06-01T08:58:47;8.95;;;5.93;;
44706;SDS011;30433;45.596;8.408;2023-06-01T09:04:52;9.68;;;5.22;;
44706;SDS011;30433;45.596;8.408;2023-06-01T09:10:54;10.13;;;5.30;;
44706;SDS011;30433;45.596;8.408;2023-06-01T09:16:59;8.60;;;5.50;;
44706;SDS011;30433;45.596;8.408;2023-06-01T09:23:03;8.88;;;5.97;;
44706;SDS011;30433;45.596;8.408;2023-06-01T09:29:06;14.90;;;5.80;;
44706;SDS011;30433;45.596;8.408;2023-06-01T09:41:11;9.82;;;6.13;;
44706;SDS011;30433;45.596;8.408;2023-06-01T09:47:14;7.15;;;5.88;;
44706;SDS011;30433;45.596;8.408;2023-06-01T09:53:16;9.73;;;6.18;;
44706;SDS011;30433;45.596;8.408;2023-06-01T09:59:20;10.32;;;6.40;;
44706;SDS011;30433;45.596;8.408;2023-06-01T10:05:25;9.05;;;6.40;;
44706;SDS011;30433;45.596;8.408;2023-06-01T10:11:28;8.13;;;7.20;;
44706;SDS011;30433;45.596;8.408;2023-06-01T10:17:32;7.55;;;6.75;;
44706;SDS011;30433;45.596;8.408;2023-06-01T10:23:35;9.25;;;5.97;;
44706;SDS011;30433;45.596;8.408;2023-06-01T10:29:38;8.20;;;6.80;;
44706;SDS011;30433;45.596;8.408;2023-06-01T10:35:52;8.85;;;6.15;;
44706;SDS011;30433;45.596;8.408;2023-06-01T10:41:55;9.75;;;5.85;;
44706;SDS011;30433;45.596;8.408;2023-06-01T10:47:58;7.00;;;4.82;;
44706;SDS011;30433;45.596;8.408;2023-06-01T11:00:30;11.15;;;5.35;;
44706;SDS011;30433;45.596;8.408;2023-06-01T11:06:41;6.05;;;4.95;;
44706;SDS011;30433;45.596;8.408;2023-06-01T11:19:19;9.27;;;5.45;;
44706;SDS011;30433;45.596;8.408;2023-06-01T11:25:24;9.65;;;5.35;;
44706;SDS011;30433;45.596;8.408;2023-06-01T11:31:33;9.10;;;5.18;;
44706;SDS011;30433;45.596;8.408;2023-06-01T11:37:37;7.63;;;5.47;;
44706;SDS011;30433;45.596;8.408;2023-06-01T11:43:40;6.35;;;4.63;;
44706;SDS011;30433;45.596;8.408;2023-06-01T11:49:44;7.85;;;5.53;;
44706;SDS011;30433;45.596;8.408;2023-06-01T11:55:49;6.97;;;5.63;;
44706;SDS011;30433;45.596;8.408;2023-06-01T12:01:51;7.30;;;5.70;;
44706;SDS011;30433;45.596;8.408;2023-06-01T12:07:55;7.97;;;6.20;;
44706;SDS011;30433;45.596;8.408;2023-06-01T12:13:58;13.68;;;6.43;;
44706;SDS011;30433;45.596;8.408;2023-06-01T12:20:00;9.38;;;5.90;;
44706;SDS011;30433;45.596;8.408;2023-06-01T12:26:05;9.20;;;5.97;;
44706;SDS011;30433;45.596;8.408;2023-06-01T12:32:08;7.57;;;6.13;;
44706;SDS011;30433;45.596;8.408;2023-06-01T12:38:11;6.80;;;4.90;;
44706;SDS011;30433;45.596;8.408;2023-06-01T12:44:18;9.02;;;5.40;;
44706;SDS011;30433;45.596;8.408;2023-06-01T12:50:21;6.80;;;5.18;;
44706;SDS011;30433;45.596;8.408;2023-06-01T13:02:27;9.85;;;5.47;;
44706;SDS011;30433;45.596;8.408;2023-06-01T13:08:29;7.82;;;5.90;;
44706;SDS011;30433;45.596;8.408;2023-06-01T13:14:32;6.30;;;5.15;;
44706;SDS011;30433;45.596;8.408;2023-06-01T13:26:39;11.20;;;5.95;;
44706;SDS011;30433;45.596;8.408;2023-06-01T13:32:42;11.30;;;5.75;;
44706;SDS011;30433;45.596;8.408;2023-06-01T13:38:45;8.65;;;5.88;;
44706;SDS011;30433;45.596;8.408;2023-06-01T13:44:48;6.65;;;5.20;;
44706;SDS011;30433;45.596;8.408;2023-06-01T13:50:50;8.52;;;5.80;;
44706;SDS011;30433;45.596;8.408;2023-06-01T13:56:55;8.60;;;6.20;;
44706;SDS011;30433;45.596;8.408;2023-06-01T14:02:59;9.32;;;6.32;;
44706;SDS011;30433;45.596;8.408;2023-06-01T14:09:01;7.97;;;5.78;;
44706;SDS011;30433;45.596;8.408;2023-06-01T14:15:05;5.90;;;5.05;;
44706;SDS011;30433;45.596;8.408;2023-06-01T14:21:08;7.47;;;5.88;;
44706;SDS011;30433;45.596;8.408;2023-06-01T14:27:10;8.48;;;6.30;;
44706;SDS011;30433;45.596;8.408;2023-06-01T14:39:17;6.75;;;5.72;;
44706;SDS011;30433;45.596;8.408;2023-06-01T14:45:19;7.57;;;5.20;;
44706;SDS011;30433;45.596;8.408;2023-06-01T14:51:24;6.50;;;5.45;;
44706;SDS011;30433;45.596;8.408;2023-06-01T14:57:28;8.07;;;5.75;;
44706;SDS011;30433;45.596;8.408;2023-06-01T15:03:30;5.82;;;5.20;;
44706;SDS011;30433;45.596;8.408;2023-06-01T15:09:34;6.20;;;4.85;;
44706;SDS011;30433;45.596;8.408;2023-06-01T15:15:36;7.05;;;5.13;;
44706;SDS011;30433;45.596;8.408;2023-06-01T15:21:40;7.90;;;5.78;;
44706;SDS011;30433;45.596;8.408;2023-06-01T15:27:44;7.03;;;5.75;;
44706;SDS011;30433;45.596;8.408;2023-06-01T15:33:46;6.50;;;5.30;;
44706;SDS011;30433;45.596;8.408;2023-06-01T15:45:51;8.30;;;5.90;;
44706;SDS011;30433;45.596;8.408;2023-06-01T15:51:55;6.70;;;5.70;;
44706;SDS011;30433;45.596;8.408;2023-06-01T15:57:57;8.52;;;6.10;;
44706;SDS011;30433;45.596;8.408;2023-06-01T16:10:03;6.60;;;5.60;;
44706;SDS011;30433;45.596;8.408;2023-06-01T16:16:06;5.95;;;5.38;;
44706;SDS011;30433;45.596;8.408;2023-06-01T16:22:10;7.15;;;6.07;;
44706;SDS011;30433;45.596;8.408;2023-06-01T16:28:12;6.90;;;5.78;;
44706;SDS011;30433;45.596;8.408;2023-06-01T16:40:18;8.45;;;7.65;;
44706;SDS011;30433;45.596;8.408;2023-06-01T16:46:20;8.93;;;6.00;;
44706;SDS011;30433;45.596;8.408;2023-06-01T16:52:24;7.40;;;5.80;;
44706;SDS011;30433;45.596;8.408;2023-06-01T16:58:31;7.30;;;6.10;;
44706;SDS011;30433;45.596;8.408;2023-06-01T17:04:34;6.90;;;6.20;;
44706;SDS011;30433;45.596;8.408;2023-06-01T17:16:39;7.45;;;5.88;;
44706;SDS011;30433;45.596;8.408;2023-06-01T17:22:42;7.18;;;5.63;;
44706;SDS011;30433;45.596;8.408;2023-06-01T17:28:45;9.13;;;6.00;;
44706;SDS011;30433;45.596;8.408;2023-06-01T17:34:48;11.52;;;5.45;;
44706;SDS011;30433;45.596;8.408;2023-06-01T17:40:50;7.22;;;5.47;;
44706;SDS011;30433;45.596;8.408;2023-06-01T17:46:55;9.73;;;5.05;;
44706;SDS011;30433;45.596;8.408;2023-06-01T17:59:01;7.53;;;5.28;;
44706;SDS011;30433;45.596;8.408;2023-06-01T18:05:04;7.00;;;4.85;;
44706;SDS011;30433;45.596;8.408;2023-06-01T18:11:10;6.82;;;4.90;;
44706;SDS011;30433;45.596;8.408;2023-06-01T18:17:12;7.72;;;5.50;;
44706;SDS011;30433;45.596;8.408;2023-06-01T18:23:15;8.45;;;5.68;;
44706;SDS011;30433;45.596;8.408;2023-06-01T18:35:20;7.28;;;5.63;;
44706;SDS011;30433;45.596;8.408;2023-06-01T18:41:24;8.02;;;5.40;;
44706;SDS011;30433;45.596;8.408;2023-06-01T18:53:30;5.72;;;5.15;;
44706;SDS011;30433;45.596;8.408;2023-06-01T19:05:35;8.80;;;5.15;;
44706;SDS011;30433;45.596;8.408;2023-06-01T19:11:39;5.57;;;4.75;;
44706;SDS011;30433;45.596;8.408;2023-06-01T19:17:42;8.38;;;5.45;;
44706;SDS011;30433;45.596;8.408;2023-06-01T19:30:31;11.63;;;6.22;;
44706;SDS011;30433;45.596;8.408;2023-06-01T19:36:42;10.10;;;6.20;;
44706;SDS011;30433;45.596;8.408;2023-06-01T19:42:57;8.05;;;6.15;;
44706;SDS011;30433;45.596;8.408;2023-06-01T19:49:01;11.75;;;6.65;;
44706;SDS011;30433;45.596;8.408;2023-06-01T19:55:05;8.32;;;6.63;;
44706;SDS011;30433;45.596;8.408;2023-06-01T20:01:08;9.02;;;6.30;;
44706;SDS011;30433;45.596;8.408;2023-06-01T20:07:11;10.32;;;7.00;;
44706;SDS011;30433;45.596;8.408;2023-06-01T20:13:18;8.75;;;7.05;;
44706;SDS011;30433;45.596;8.408;2023-06-01T20:19:22;8.70;;;6.80;;
44706;SDS011;30433;45.596;8.408;2023-06-01T20:25:27;7.63;;;6.82;;
44706;SDS011;30433;45.596;8.408;2023-06-01T20:31:29;8.93;;;7.53;;
44706;SDS011;30433;45.596;8.408;2023-06-01T20:37:32;9.32;;;7.15;;
44706;SDS011;30433;45.596;8.408;2023-06-01T20:43:39;9.25;;;7.18;;
44706;SDS011;30433;45.596;8.408;2023-06-01T20:49:42;8.32;;;7.28;;
44706;SDS011;30433;45.596;8.408;2023-06-01T20:55:46;8.10;;;7.25;;
44706;SDS011;30433;45.596;8.408;2023-06-01T21:01:51;9.73;;;7.15;;
44706;SDS011;30433;45.596;8.408;2023-06-01T21:07:54;7.88;;;6.85;;
44706;SDS011;30433;45.596;8.408;2023-06-01T21:13:56;7.75;;;6.60;;
44706;SDS011;30433;45.596;8.408;2023-06-01T21:20:00;10.05;;;7.15;;
44706;SDS011;30433;45.596;8.408;2023-06-01T21:26:02;11.43;;;7.03;;
44706;SDS011;30433;45.596;8.408;2023-06-01T21:32:05;7.68;;;6.88;;
44706;SDS011;30433;45.596;8.408;2023-06-01T21:38:10;8.60;;;6.65;;
44706;SDS011;30433;45.596;8.408;2023-06-01T21:44:15;9.23;;;6.72;;
44706;SDS011;30433;45.596;8.408;2023-06-01T21:50:17;8.77;;;6.82;;
44706;SDS011;30433;45.596;8.408;2023-06-01T21:56:20;9.25;;;6.70;;
44706;SDS011;30433;45.596;8.408;2023-06-01T22:02:23;8.80;;;7.05;;
44706;SDS011;30433;45.596;8.408;2023-06-01T22:08:26;9.25;;;6.78;;
44706;SDS011;30433;45.596;8.408;2023-06-01T22:14:30;9.30;;;7.20;;
44706;SDS011;30433;45.596;8.408;2023-06-01T22:20:32;7.60;;;6.90;;
44706;SDS011;30433;45.596;8.408;2023-06-01T22:26:34;8.20;;;7.00;;
44706;SDS011;30433;45.596;8.408;2023-06-01T22:32:38;9.40;;;6.85;;
44706;SDS011;30433;45.596;8.408;2023-06-01T22:38:40;8.90;;;6.80;;
44706;SDS011;30433;45.596;8.408;2023-06-01T22:44:43;9.27;;;6.93;;
44706;SDS011;30433;45.596;8.408;2023-06-01T22:50:47;9.63;;;6.57;;
44706;SDS011;30433;45.596;8.408;2023-06-01T22:56:51;8.68;;;6.35;;
44706;SDS011;30433;45.596;8.408;2023-06-01T23:02:53;8.70;;;6.90;;
44706;SDS011;30433;45.596;8.408;2023-06-01T23:08:57;13.35;;;6.78;;
44706;SDS011;30433;45.596;8.408;2023-06-01T23:15:00;7.03;;;6.07;;
44706;SDS011;30433;45.596;8.408;2023-06-01T23:21:03;9.60;;;5.60;;
44706;SDS011;30433;45.596;8.408;2023-06-01T23:27:07;10.18;;;5.28;;
44706;SDS011;30433;45.596;8.408;2023-06-01T23:33:09;5.85;;;4.55;;
44706;SDS011;30433;45.596;8.408;2023-06-01T23:39:11;5.63;;;4.22;;
44706;SDS011;30433;45.596;8.408;2023-06-01T23:45:15;5.72;;;3.72;;
44706;SDS011;30433;45.596;8.408;2023-06-01T23:51:19;5.10;;;3.42;;
44706;SDS011;30433;45.596;8.408;2023-06-01T23:57:22;5.03;;;3.72;;
